sensor_id;sensor_type;location;lat;lon;timestamp;pressure;altitude;pressure_sealevel;temperature;humidity
18527;BME280;9393;42.158;24.748;2023-05-21T00:02:52;99327.91;;;19.17;77.41
18527;BME280;9393;42.158;24.748;2023-05-21T00:05:57;99322.03;;;19.15;77.52
18527;BME280;9393;42.158;24.748;2023-05-21T00:09:03;99316.34;;;19.25;77.22
18527;BME280;9393;42.158;24.748;2023-05-21T00:12:08;99315.31;;;19.33;76.48
18527;BME280;9393;42.158;24.748;2023-05-21T00:15:12;99307.59;;;19.25;76.62
18527;BME280;9393;42.158;24.748;2023-05-21T00:18:17;99303.53;;;19.29;76.63
18527;BME280;9393;42.158;24.748;2023-05-21T00:21:23;99299.88;;;19.16;77.37
18527;BME280;9393;42.158;24.748;2023-05-21T00:24:28;99292.13;;;19.02;77.86
18527;BME280;9393;42.158;24.748;2023-05-21T00:27:32;99297.00;;;19.05;77.03
18527;BME280;9393;42.158;24.748;2023-05-21T00:30:36;99295.19;;;18.99;77.38
18527;BME280;9393;42.158;24.748;2023-05-21T00:33:42;99288.06;;;19.26;76.16
18527;BME280;9393;42.158;24.748;2023-05-21T00:36:46;99282.38;;;19.15;76.70
18527;BME280;9393;42.158;24.748;2023-05-21T00:39:50;99279.31;;;19.05;77.12
18527;BME280;9393;42.158;24.748;2023-05-21T00:42:55;99277.91;;;19.09;77.08
18527;BME280;9393;42.158;24.748;2023-05-21T00:45:59;99283.19;;;19.23;76.51
18527;BME280;9393;42.158;24.748;2023-05-21T00:49:05;99282.56;;;19.07;77.37
18527;BME280;9393;42.158;24.748;2023-05-21T00:52:09;99276.69;;;19.12;76.97
18527;BME280;9393;42.158;24.748;2023-05-21T00:55:14;99271.00;;;19.02;77.87
18527;BME280;9393;42.158;24.748;2023-05-21T00:58:19;99280.34;;;19.11;77.51
18527;BME280;9393;42.158;24.748;2023-05-21T01:01:24;99271.41;;;19.05;77.67
18527;BME280;9393;42.158;24.748;2023-05-21T01:04:30;99267.53;;;18.88;78.40
18527;BME280;9393;42.158;24.748;2023-05-21T01:07:35;99270.75;;;18.90;78.74
18527;BME280;9393;42.158;24.748;2023-05-21T01:10:42;99275.84;;;18.92;78.32
18527;BME280;9393;42.158;24.748;2023-05-21T01:13:46;99277.69;;;19.11;77.46
18527;BME280;9393;42.158;24.748;2023-05-21T01:16:52;99274.63;;;19.01;78.09
18527;BME280;9393;42.158;24.748;2023-05-21T01:19:58;99276.28;;;19.02;77.86
18527;BME280;9393;42.158;24.748;2023-05-21T01:23:04;99271.41;;;18.99;78.17
18527;BME280;9393;42.158;24.748;2023-05-21T01:26:09;99270.56;;;18.85;78.81
18527;BME280;9393;42.158;24.748;2023-05-21T01:29:14;99267.94;;;18.92;78.39
18527;BME280;9393;42.158;24.748;2023-05-21T01:32:25;99267.72;;;18.93;78.19
18527;BME280;9393;42.158;24.748;2023-05-21T01:35:34;99262.44;;;18.93;78.34
18527;BME280;9393;42.158;24.748;2023-05-21T01:38:42;99262.44;;;18.93;78.41
18527;BME280;9393;42.158;24.748;2023-05-21T01:41:52;99264.47;;;18.91;78.26
18527;BME280;9393;42.158;24.748;2023-05-21T01:44:58;99260.00;;;19.11;77.36
18527;BME280;9393;42.158;24.748;2023-05-21T01:48:06;99259.81;;;19.06;77.00
18527;BME280;9393;42.158;24.748;2023-05-21T01:51:11;99253.66;;;18.80;78.01
18527;BME280;9393;42.158;24.748;2023-05-21T01:54:17;99257.69;;;18.56;79.66
18527;BME280;9393;42.158;24.748;2023-05-21T01:57:21;99256.94;;;18.82;78.57
18527;BME280;9393;42.158;24.748;2023-05-21T02:00:25;99246.78;;;18.79;78.86
18527;BME280;9393;42.158;24.748;2023-05-21T02:03:30;99249.44;;;18.92;77.96
18527;BME280;9393;42.158;24.748;2023-05-21T02:06:35;99250.03;;;18.87;78.07
18527;BME280;9393;42.158;24.748;2023-05-21T02:09:42;99237.63;;;18.88;77.89
18527;BME280;9393;42.158;24.748;2023-05-21T02:12:46;99244.34;;;18.90;77.43
18527;BME280;9393;42.158;24.748;2023-05-21T02:15:50;99248.03;;;18.89;77.15
18527;BME280;9393;42.158;24.748;2023-05-21T02:18:57;99251.25;;;18.85;77.10
18527;BME280;9393;42.158;24.748;2023-05-21T02:22:02;99251.44;;;18.70;77.67
18527;BME280;9393;42.158;24.748;2023-05-21T02:25:09;99243.09;;;18.60;77.93
18527;BME280;9393;42.158;24.748;2023-05-21T02:28:13;99238.22;;;18.70;77.56
18527;BME280;9393;42.158;24.748;2023-05-21T02:31:17;99245.56;;;18.88;76.75
18527;BME280;9393;42.158;24.748;2023-05-21T02:34:21;99243.50;;;18.70;77.20
18527;BME280;9393;42.158;24.748;2023-05-21T02:37:26;99233.94;;;18.76;76.51
18527;BME280;9393;42.158;24.748;2023-05-21T02:40:31;99246.78;;;18.85;75.72
18527;BME280;9393;42.158;24.748;2023-05-21T02:43:35;99240.47;;;18.93;75.46
18527;BME280;9393;42.158;24.748;2023-05-21T02:46:39;99232.53;;;18.86;75.19
18527;BME280;9393;42.158;24.748;2023-05-21T02:49:43;99235.81;;;18.75;74.80
18527;BME280;9393;42.158;24.748;2023-05-21T02:52:47;99242.09;;;19.00;74.30
18527;BME280;9393;42.158;24.748;2023-05-21T02:55:53;99242.50;;;18.91;73.90
18527;BME280;9393;42.158;24.748;2023-05-21T02:58:57;99242.09;;;18.87;73.44
18527;BME280;9393;42.158;24.748;2023-05-21T03:02:01;99243.94;;;18.93;73.76
18527;BME280;9393;42.158;24.748;2023-05-21T03:05:06;99247.38;;;18.87;73.92
18527;BME280;9393;42.158;24.748;2023-05-21T03:08:10;99242.50;;;18.71;75.24
18527;BME280;9393;42.158;24.748;2023-05-21T03:11:18;99233.56;;;18.79;75.31
18527;BME280;9393;42.158;24.748;2023-05-21T03:14:23;99236.41;;;18.84;75.06
18527;BME280;9393;42.158;24.748;2023-05-21T03:17:27;99243.09;;;18.86;75.31
18527;BME280;9393;42.158;24.748;2023-05-21T03:20:31;99249.59;;;18.71;76.35
18527;BME280;9393;42.158;24.748;2023-05-21T03:23:35;99240.47;;;18.80;75.61
18527;BME280;9393;42.158;24.748;2023-05-21T03:26:41;99248.19;;;18.81;75.78
18527;BME280;9393;42.158;24.748;2023-05-21T03:29:46;99255.09;;;18.76;76.05
18527;BME280;9393;42.158;24.748;2023-05-21T03:32:50;99246.16;;;18.83;76.30
18527;BME280;9393;42.158;24.748;2023-05-21T03:35:54;99241.84;;;18.62;77.03
18527;BME280;9393;42.158;24.748;2023-05-21T03:39:01;99245.56;;;18.81;76.16
18527;BME280;9393;42.158;24.748;2023-05-21T03:42:09;99248.81;;;18.96;75.37
18527;BME280;9393;42.158;24.748;2023-05-21T03:45:27;99250.44;;;18.84;76.37
18527;BME280;9393;42.158;24.748;2023-05-21T03:48:51;99243.13;;;18.93;75.90
18527;BME280;9393;42.158;24.748;2023-05-21T03:51:58;99252.50;;;18.95;75.88
18527;BME280;9393;42.158;24.748;2023-05-21T03:55:02;99252.28;;;19.03;75.35
18527;BME280;9393;42.158;24.748;2023-05-21T03:58:07;99254.13;;;19.09;74.47
18527;BME280;9393;42.158;24.748;2023-05-21T04:01:12;99249.84;;;19.02;74.61
18527;BME280;9393;42.158;24.748;2023-05-21T04:04:16;99245.97;;;18.98;74.64
18527;BME280;9393;42.158;24.748;2023-05-21T04:07:20;99250.66;;;19.09;74.26
18527;BME280;9393;42.158;24.748;2023-05-21T04:10:24;99248.22;;;19.07;75.78
18527;BME280;9393;42.158;24.748;2023-05-21T04:13:29;99244.75;;;19.07;75.73
18527;BME280;9393;42.158;24.748;2023-05-21T04:16:33;99247.59;;;19.18;74.49
18527;BME280;9393;42.158;24.748;2023-05-21T04:19:40;99244.16;;;19.18;73.47
18527;BME280;9393;42.158;24.748;2023-05-21T04:22:43;99248.22;;;19.27;73.28
18527;BME280;9393;42.158;24.748;2023-05-21T04:25:48;99250.47;;;19.43;72.57
18527;BME280;9393;42.158;24.748;2023-05-21T04:28:54;99248.00;;;19.29;73.86
18527;BME280;9393;42.158;24.748;2023-05-21T04:31:58;99249.81;;;19.35;74.14
18527;BME280;9393;42.158;24.748;2023-05-21T04:35:02;99239.66;;;19.32;74.27
18527;BME280;9393;42.158;24.748;2023-05-21T04:38:06;99245.78;;;19.26;74.38
18527;BME280;9393;42.158;24.748;2023-05-21T04:41:12;99245.75;;;19.32;74.54
18527;BME280;9393;42.158;24.748;2023-05-21T04:44:17;99246.56;;;19.39;74.03
18527;BME280;9393;42.158;24.748;2023-05-21T04:47:21;99246.16;;;19.36;74.10
18527;BME280;9393;42.158;24.748;2023-05-21T04:50:25;99253.50;;;19.40;73.92
18527;BME280;9393;42.158;24.748;2023-05-21T04:53:32;99255.53;;;19.32;74.02
18527;BME280;9393;42.158;24.748;2023-05-21T04:56:37;99252.28;;;19.43;73.71
18527;BME280;9393;42.158;24.748;2023-05-21T04:59:42;99258.59;;;19.48;73.51
18527;BME280;9393;42.158;24.748;2023-05-21T05:02:47;99251.03;;;19.39;73.84
18527;BME280;9393;42.158;24.748;2023-05-21T05:05:52;99253.28;;;19.55;72.76
18527;BME280;9393;42.158;24.748;2023-05-21T05:08:56;99252.69;;;19.46;73.39
18527;BME280;9393;42.158;24.748;2023-05-21T05:12:00;99255.16;;;19.48;73.44
18527;BME280;9393;42.158;24.748;2023-05-21T05:15:07;99260.22;;;19.36;74.55
18527;BME280;9393;42.158;24.748;2023-05-21T05:18:11;99261.63;;;19.39;73.89
18527;BME280;9393;42.158;24.748;2023-05-21T05:21:15;99261.63;;;19.52;73.56
18527;BME280;9393;42.158;24.748;2023-05-21T05:24:19;99262.03;;;19.49;73.43
18527;BME280;9393;42.158;24.748;2023-05-21T05:27:23;99273.44;;;19.43;73.36
18527;BME280;9393;42.158;24.748;2023-05-21T05:30:29;99277.91;;;19.69;72.83
18527;BME280;9393;42.158;24.748;2023-05-21T05:33:45;99276.31;;;19.54;73.37
18527;BME280;9393;42.158;24.748;2023-05-21T05:36:50;99274.22;;;19.70;72.29
18527;BME280;9393;42.158;24.748;2023-05-21T05:39:54;99278.53;;;19.64;72.35
18527;BME280;9393;42.158;24.748;2023-05-21T05:42:58;99285.22;;;19.60;73.57
18527;BME280;9393;42.158;24.748;2023-05-21T05:46:04;99292.34;;;19.66;73.84
18527;BME280;9393;42.158;24.748;2023-05-21T05:49:08;99296.19;;;19.70;74.35
18527;BME280;9393;42.158;24.748;2023-05-21T05:52:13;99280.56;;;19.55;75.93
18527;BME280;9393;42.158;24.748;2023-05-21T05:55:17;99287.47;;;19.56;76.06
18527;BME280;9393;42.158;24.748;2023-05-21T05:58:23;99288.47;;;19.62;76.30
18527;BME280;9393;42.158;24.748;2023-05-21T06:01:33;99288.84;;;19.00;79.90
18527;BME280;9393;42.158;24.748;2023-05-21T06:04:37;99281.59;;;19.48;76.57
18527;BME280;9393;42.158;24.748;2023-05-21T06:07:42;99290.97;;;19.44;75.58
18527;BME280;9393;42.158;24.748;2023-05-21T06:10:46;99302.34;;;19.51;74.86
18527;BME280;9393;42.158;24.748;2023-05-21T06:13:50;99303.53;;;19.48;75.41
18527;BME280;9393;42.158;24.748;2023-05-21T06:16:57;99297.84;;;19.51;75.43
18527;BME280;9393;42.158;24.748;2023-05-21T06:20:03;99291.34;;;19.54;76.16
18527;BME280;9393;42.158;24.748;2023-05-21T06:23:08;99269.38;;;19.40;77.51
18527;BME280;9393;42.158;24.748;2023-05-21T06:26:13;99272.63;;;19.23;79.27
18527;BME280;9393;42.158;24.748;2023-05-21T06:29:17;99281.78;;;19.40;79.27
18527;BME280;9393;42.158;24.748;2023-05-21T06:32:23;99283.84;;;19.44;78.71
18527;BME280;9393;42.158;24.748;2023-05-21T06:35:27;99282.16;;;19.76;77.75
18527;BME280;9393;42.158;24.748;2023-05-21T06:38:33;99277.88;;;19.82;76.79
18527;BME280;9393;42.158;24.748;2023-05-21T06:41:37;99283.09;;;20.08;75.63
18527;BME280;9393;42.158;24.748;2023-05-21T06:45:01;99289.81;;;20.04;75.55
18527;BME280;9393;42.158;24.748;2023-05-21T06:48:12;99278.22;;;20.05;75.11
18527;BME280;9393;42.158;24.748;2023-05-21T06:51:18;99284.66;;;20.29;73.52
18527;BME280;9393;42.158;24.748;2023-05-21T06:54:22;99285.06;;;20.26;73.59
18527;BME280;9393;42.158;24.748;2023-05-21T06:57:28;99288.28;;;20.34;73.10
18527;BME280;9393;42.158;24.748;2023-05-21T07:00:33;99292.00;;;20.20;73.42
18527;BME280;9393;42.158;24.748;2023-05-21T07:03:39;99297.19;;;19.89;73.95
18527;BME280;9393;42.158;24.748;2023-05-21T07:06:43;99291.22;;;20.13;72.50
18527;BME280;9393;42.158;24.748;2023-05-21T07:09:48;99289.13;;;20.35;71.62
18527;BME280;9393;42.158;24.748;2023-05-21T07:12:52;99291.16;;;20.26;72.05
18527;BME280;9393;42.158;24.748;2023-05-21T07:15:56;99284.88;;;20.34;72.04
18527;BME280;9393;42.158;24.748;2023-05-21T07:19:02;99284.53;;;20.55;71.82
18527;BME280;9393;42.158;24.748;2023-05-21T07:22:06;99286.16;;;20.56;71.53
18527;BME280;9393;42.158;24.748;2023-05-21T07:25:13;99282.84;;;20.67;71.44
18527;BME280;9393;42.158;24.748;2023-05-21T07:28:17;99281.75;;;20.81;71.30
18527;BME280;9393;42.158;24.748;2023-05-21T07:31:21;99284.50;;;20.99;69.92
18527;BME280;9393;42.158;24.748;2023-05-21T07:34:28;99282.28;;;21.21;68.17
18527;BME280;9393;42.158;24.748;2023-05-21T07:37:33;99285.50;;;21.30;67.51
18527;BME280;9393;42.158;24.748;2023-05-21T07:40:38;99278.25;;;21.19;66.89
18527;BME280;9393;42.158;24.748;2023-05-21T07:43:42;99288.91;;;21.61;65.78
18527;BME280;9393;42.158;24.748;2023-05-21T07:46:46;99288.03;;;21.86;64.48
18527;BME280;9393;42.158;24.748;2023-05-21T07:49:52;99296.63;;;22.06;62.89
18527;BME280;9393;42.158;24.748;2023-05-21T07:52:57;99302.88;;;22.30;61.08
18527;BME280;9393;42.158;24.748;2023-05-21T07:56:01;99298.03;;;22.08;61.68
18527;BME280;9393;42.158;24.748;2023-05-21T07:59:06;99299.13;;;22.19;61.42
18527;BME280;9393;42.158;24.748;2023-05-21T08:02:13;99303.75;;;22.42;60.42
18527;BME280;9393;42.158;24.748;2023-05-21T08:05:19;99297.94;;;22.15;60.22
18527;BME280;9393;42.158;24.748;2023-05-21T08:08:25;99296.25;;;22.21;59.46
18527;BME280;9393;42.158;24.748;2023-05-21T08:11:31;99293.38;;;22.04;57.25
18527;BME280;9393;42.158;24.748;2023-05-21T08:14:35;99292.84;;;22.13;56.16
18527;BME280;9393;42.158;24.748;2023-05-21T08:17:40;99304.28;;;22.32;55.34
18527;BME280;9393;42.158;24.748;2023-05-21T08:20:46;99292.63;;;22.81;55.14
18527;BME280;9393;42.158;24.748;2023-05-21T08:23:54;99294.25;;;22.82;53.74
18527;BME280;9393;42.158;24.748;2023-05-21T08:26:59;99293.25;;;22.95;51.71
18527;BME280;9393;42.158;24.748;2023-05-21T08:30:06;99297.13;;;22.81;51.59
18527;BME280;9393;42.158;24.748;2023-05-21T08:33:12;99308.78;;;23.21;51.03
18527;BME280;9393;42.158;24.748;2023-05-21T08:36:18;99302.25;;;22.94;53.02
18527;BME280;9393;42.158;24.748;2023-05-21T08:39:29;99306.13;;;23.09;54.31
18527;BME280;9393;42.158;24.748;2023-05-21T08:42:42;99298.06;;;23.39;53.48
18527;BME280;9393;42.158;24.748;2023-05-21T08:45:56;99303.03;;;23.36;52.82
18527;BME280;9393;42.158;24.748;2023-05-21T08:49:10;99309.47;;;23.05;52.71
18527;BME280;9393;42.158;24.748;2023-05-21T08:52:17;99299.53;;;22.71;52.64
18527;BME280;9393;42.158;24.748;2023-05-21T08:55:23;99282.91;;;22.75;52.42
18527;BME280;9393;42.158;24.748;2023-05-21T08:58:31;99279.19;;;22.76;53.11
18527;BME280;9393;42.158;24.748;2023-05-21T09:01:36;99276.88;;;23.09;51.76
18527;BME280;9393;42.158;24.748;2023-05-21T09:04:55;99281.00;;;23.17;50.49
18527;BME280;9393;42.158;24.748;2023-05-21T09:08:05;99278.03;;;23.25;48.82
18527;BME280;9393;42.158;24.748;2023-05-21T09:11:20;99279.75;;;23.31;48.29
18527;BME280;9393;42.158;24.748;2023-05-21T09:14:30;99270.88;;;23.84;48.31
18527;BME280;9393;42.158;24.748;2023-05-21T09:17:40;99279.88;;;23.13;47.94
18527;BME280;9393;42.158;24.748;2023-05-21T09:21:22;99277.50;;;23.58;47.31
18527;BME280;9393;42.158;24.748;2023-05-21T09:24:31;99277.16;;;23.54;44.89
18527;BME280;9393;42.158;24.748;2023-05-21T09:27:39;99273.63;;;23.31;46.11
18527;BME280;9393;42.158;24.748;2023-05-21T09:30:45;99273.34;;;23.50;45.41
18527;BME280;9393;42.158;24.748;2023-05-21T09:33:50;99283.72;;;23.40;45.62
18527;BME280;9393;42.158;24.748;2023-05-21T09:36:55;99295.03;;;23.36;45.20
18527;BME280;9393;42.158;24.748;2023-05-21T09:40:09;99293.63;;;23.22;45.98
18527;BME280;9393;42.158;24.748;2023-05-21T09:43:14;99284.84;;;23.21;44.84
18527;BME280;9393;42.158;24.748;2023-05-21T09:46:20;99289.09;;;23.10;45.62
18527;BME280;9393;42.158;24.748;2023-05-21T09:49:25;99280.97;;;23.47;45.17
18527;BME280;9393;42.158;24.748;2023-05-21T09:52:31;99282.19;;;23.21;46.39
18527;BME280;9393;42.158;24.748;2023-05-21T09:55:36;99281.63;;;23.19;46.76
18527;BME280;9393;42.158;24.748;2023-05-21T09:58:40;99285.56;;;23.17;46.03
18527;BME280;9393;42.158;24.748;2023-05-21T10:01:45;99289.56;;;22.96;45.21
18527;BME280;9393;42.158;24.748;2023-05-21T10:04:50;99291.41;;;22.95;46.31
18527;BME280;9393;42.158;24.748;2023-05-21T10:07:58;99292.63;;;22.93;45.26
18527;BME280;9393;42.158;24.748;2023-05-21T10:11:05;99293.34;;;22.88;47.04
18527;BME280;9393;42.158;24.748;2023-05-21T10:14:15;99291.41;;;22.95;47.41
18527;BME280;9393;42.158;24.748;2023-05-21T10:17:19;99283.56;;;22.71;48.96
18527;BME280;9393;42.158;24.748;2023-05-21T10:20:24;99279.81;;;22.60;49.35
18527;BME280;9393;42.158;24.748;2023-05-21T10:23:29;99281.13;;;22.69;49.10
18527;BME280;9393;42.158;24.748;2023-05-21T10:26:34;99280.91;;;22.71;49.99
18527;BME280;9393;42.158;24.748;2023-05-21T10:29:40;99280.66;;;22.72;49.40
18527;BME280;9393;42.158;24.748;2023-05-21T10:32:47;99286.69;;;23.09;49.98
18527;BME280;9393;42.158;24.748;2023-05-21T10:35:53;99289.94;;;23.23;49.11
18527;BME280;9393;42.158;24.748;2023-05-21T10:39:01;99289.72;;;23.36;48.93
18527;BME280;9393;42.158;24.748;2023-05-21T10:42:16;99292.22;;;23.60;49.12
18527;BME280;9393;42.158;24.748;2023-05-21T10:45:28;99301.56;;;23.75;48.00
18527;BME280;9393;42.158;24.748;2023-05-21T10:48:49;99293.78;;;23.96;49.22
18527;BME280;9393;42.158;24.748;2023-05-21T10:52:08;99299.88;;;24.72;46.36
18527;BME280;9393;42.158;24.748;2023-05-21T10:55:26;99303.53;;;24.54;44.94
18527;BME280;9393;42.158;24.748;2023-05-21T10:58:52;99297.97;;;23.69;46.20
18527;BME280;9393;42.158;24.748;2023-05-21T11:02:02;99291.38;;;23.48;48.09
18527;BME280;9393;42.158;24.748;2023-05-21T11:05:08;99294.81;;;23.26;44.17
18527;BME280;9393;42.158;24.748;2023-05-21T11:08:23;99294.88;;;23.60;45.06
18527;BME280;9393;42.158;24.748;2023-05-21T11:11:43;99289.97;;;24.16;43.66
18527;BME280;9393;42.158;24.748;2023-05-21T11:14:56;99296.81;;;23.53;45.46
18527;BME280;9393;42.158;24.748;2023-05-21T11:18:00;99275.25;;;23.32;47.13
18527;BME280;9393;42.158;24.748;2023-05-21T11:21:06;99281.59;;;23.31;48.18
18527;BME280;9393;42.158;24.748;2023-05-21T11:24:17;99278.47;;;23.10;49.65
18527;BME280;9393;42.158;24.748;2023-05-21T11:27:32;99281.84;;;22.76;50.24
18527;BME280;9393;42.158;24.748;2023-05-21T11:30:38;99270.97;;;22.48;51.71
18527;BME280;9393;42.158;24.748;2023-05-21T11:33:42;99267.19;;;22.55;51.83
18527;BME280;9393;42.158;24.748;2023-05-21T11:36:47;99270.31;;;22.34;51.39
18527;BME280;9393;42.158;24.748;2023-05-21T11:39:52;99265.97;;;22.40;52.09
18527;BME280;9393;42.158;24.748;2023-05-21T11:42:57;99269.63;;;22.27;53.18
18527;BME280;9393;42.158;24.748;2023-05-21T11:46:03;99262.47;;;22.57;51.66
18527;BME280;9393;42.158;24.748;2023-05-21T11:49:08;99269.63;;;22.75;51.15
18527;BME280;9393;42.158;24.748;2023-05-21T11:52:13;99261.94;;;22.19;52.28
18527;BME280;9393;42.158;24.748;2023-05-21T11:55:20;99267.34;;;21.94;52.57
18527;BME280;9393;42.158;24.748;2023-05-21T11:58:25;99260.44;;;21.87;53.16
18527;BME280;9393;42.158;24.748;2023-05-21T12:01:31;99256.72;;;21.94;53.37
18527;BME280;9393;42.158;24.748;2023-05-21T12:04:36;99255.81;;;22.00;53.10
18527;BME280;9393;42.158;24.748;2023-05-21T12:07:40;99248.69;;;22.01;53.58
18527;BME280;9393;42.158;24.748;2023-05-21T12:10:45;99250.13;;;22.15;53.11
18527;BME280;9393;42.158;24.748;2023-05-21T12:13:49;99248.28;;;22.34;52.49
18527;BME280;9393;42.158;24.748;2023-05-21T12:16:54;99240.88;;;22.36;52.10
18527;BME280;9393;42.158;24.748;2023-05-21T12:19:59;99245.03;;;22.32;52.50
18527;BME280;9393;42.158;24.748;2023-05-21T12:23:18;99248.78;;;22.24;52.11
18527;BME280;9393;42.158;24.748;2023-05-21T12:26:22;99238.53;;;22.28;52.52
18527;BME280;9393;42.158;24.748;2023-05-21T12:29:27;99244.06;;;22.44;52.19
18527;BME280;9393;42.158;24.748;2023-05-21T12:32:34;99235.13;;;22.39;52.44
18527;BME280;9393;42.158;24.748;2023-05-21T12:35:39;99234.66;;;22.42;51.87
18527;BME280;9393;42.158;24.748;2023-05-21T12:38:43;99235.94;;;22.39;52.23
18527;BME280;9393;42.158;24.748;2023-05-21T12:41:53;99233.13;;;22.34;51.98
18527;BME280;9393;42.158;24.748;2023-05-21T12:44:57;99240.09;;;22.65;52.17
18527;BME280;9393;42.158;24.748;2023-05-21T12:48:03;99239.34;;;22.88;50.86
18527;BME280;9393;42.158;24.748;2023-05-21T12:51:07;99236.16;;;23.21;50.67
18527;BME280;9393;42.158;24.748;2023-05-21T12:54:11;99234.06;;;23.23;49.59
18527;BME280;9393;42.158;24.748;2023-05-21T12:57:17;99238.28;;;23.42;49.53
18527;BME280;9393;42.158;24.748;2023-05-21T13:00:22;99233.59;;;23.72;49.49
18527;BME280;9393;42.158;24.748;2023-05-21T13:03:28;99226.41;;;23.84;49.80
18527;BME280;9393;42.158;24.748;2023-05-21T13:06:41;99228.47;;;23.94;49.94
18527;BME280;9393;42.158;24.748;2023-05-21T13:09:45;99234.41;;;23.73;50.78
18527;BME280;9393;42.158;24.748;2023-05-21T13:12:50;99226.59;;;24.06;49.77
18527;BME280;9393;42.158;24.748;2023-05-21T13:15:54;99229.91;;;24.25;48.85
18527;BME280;9393;42.158;24.748;2023-05-21T13:19:00;99228.47;;;24.05;47.95
18527;BME280;9393;42.158;24.748;2023-05-21T13:22:04;99225.03;;;24.33;47.72
18527;BME280;9393;42.158;24.748;2023-05-21T13:25:08;99227.06;;;24.14;46.87
18527;BME280;9393;42.158;24.748;2023-05-21T13:28:13;99227.78;;;24.38;47.15
18527;BME280;9393;42.158;24.748;2023-05-21T13:31:18;99224.84;;;24.23;47.86
18527;BME280;9393;42.158;24.748;2023-05-21T13:34:23;99231.53;;;24.26;47.47
18527;BME280;9393;42.158;24.748;2023-05-21T13:37:28;99220.09;;;24.13;46.92
18527;BME280;9393;42.158;24.748;2023-05-21T13:40:32;99226.13;;;24.09;45.65
18527;BME280;9393;42.158;24.748;2023-05-21T13:43:41;99229.50;;;24.04;46.61
18527;BME280;9393;42.158;24.748;2023-05-21T13:46:45;99225.78;;;24.17;46.64
18527;BME280;9393;42.158;24.748;2023-05-21T13:49:51;99217.00;;;24.17;47.12
18527;BME280;9393;42.158;24.748;2023-05-21T13:52:55;99217.66;;;24.24;47.51
18527;BME280;9393;42.158;24.748;2023-05-21T13:55:59;99218.22;;;23.86;47.54
18527;BME280;9393;42.158;24.748;2023-05-21T13:59:03;99223.22;;;24.10;46.90
18527;BME280;9393;42.158;24.748;2023-05-21T14:02:08;99219.31;;;24.13;46.98
18527;BME280;9393;42.158;24.748;2023-05-21T14:05:14;99216.50;;;24.08;45.87
18527;BME280;9393;42.158;24.748;2023-05-21T14:08:19;99215.28;;;23.87;45.54
18527;BME280;9393;42.158;24.748;2023-05-21T14:11:23;99214.41;;;23.82;45.98
18527;BME280;9393;42.158;24.748;2023-05-21T14:14:27;99209.28;;;23.92;46.59
18527;BME280;9393;42.158;24.748;2023-05-21T14:17:31;99209.13;;;23.98;46.67
18527;BME280;9393;42.158;24.748;2023-05-21T14:20:37;99213.63;;;24.09;46.06
18527;BME280;9393;42.158;24.748;2023-05-21T14:23:41;99212.13;;;24.13;47.51
18527;BME280;9393;42.158;24.748;2023-05-21T14:26:45;99211.75;;;24.10;47.39
18527;BME280;9393;42.158;24.748;2023-05-21T14:29:49;99209.47;;;24.02;48.13
18527;BME280;9393;42.158;24.748;2023-05-21T14:32:53;99216.59;;;23.85;48.52
18527;BME280;9393;42.158;24.748;2023-05-21T14:36:00;99207.16;;;23.94;49.00
18527;BME280;9393;42.158;24.748;2023-05-21T14:39:04;99204.78;;;23.69;48.62
18527;BME280;9393;42.158;24.748;2023-05-21T14:42:08;99200.75;;;23.78;48.00
18527;BME280;9393;42.158;24.748;2023-05-21T14:45:12;99198.78;;;23.62;47.91
18527;BME280;9393;42.158;24.748;2023-05-21T14:48:20;99192.28;;;23.81;47.76
18527;BME280;9393;42.158;24.748;2023-05-21T14:51:26;99192.34;;;23.98;46.74
18527;BME280;9393;42.158;24.748;2023-05-21T14:54:30;99193.97;;;23.99;47.70
18527;BME280;9393;42.158;24.748;2023-05-21T14:57:34;99194.13;;;23.81;49.38
18527;BME280;9393;42.158;24.748;2023-05-21T15:00:38;99190.50;;;23.87;49.57
18527;BME280;9393;42.158;24.748;2023-05-21T15:03:42;99189.97;;;23.73;49.53
18527;BME280;9393;42.158;24.748;2023-05-21T15:06:48;99189.03;;;23.79;49.01
18527;BME280;9393;42.158;24.748;2023-05-21T15:09:52;99181.91;;;23.68;47.37
18527;BME280;9393;42.158;24.748;2023-05-21T15:12:56;99182.38;;;23.42;48.43
18527;BME280;9393;42.158;24.748;2023-05-21T15:16:00;99179.94;;;23.52;48.67
18527;BME280;9393;42.158;24.748;2023-05-21T15:19:05;99178.09;;;23.52;49.62
18527;BME280;9393;42.158;24.748;2023-05-21T15:22:10;99172.06;;;23.45;50.30
18527;BME280;9393;42.158;24.748;2023-05-21T15:25:14;99170.91;;;23.41;50.80
18527;BME280;9393;42.158;24.748;2023-05-21T15:28:20;99173.72;;;23.23;52.33
18527;BME280;9393;42.158;24.748;2023-05-21T15:31:24;99171.13;;;23.28;53.19
18527;BME280;9393;42.158;24.748;2023-05-21T15:34:28;99168.25;;;23.30;54.15
18527;BME280;9393;42.158;24.748;2023-05-21T15:37:34;99170.09;;;23.17;55.02
18527;BME280;9393;42.158;24.748;2023-05-21T15:40:38;99158.91;;;23.15;54.25
18527;BME280;9393;42.158;24.748;2023-05-21T15:43:45;99168.47;;;22.93;54.49
18527;BME280;9393;42.158;24.748;2023-05-21T15:46:49;99162.69;;;22.96;55.14
18527;BME280;9393;42.158;24.748;2023-05-21T15:49:53;99165.25;;;22.91;56.11
18527;BME280;9393;42.158;24.748;2023-05-21T15:52:58;99159.91;;;22.80;56.98
18527;BME280;9393;42.158;24.748;2023-05-21T15:56:02;99163.72;;;22.84;56.81
18527;BME280;9393;42.158;24.748;2023-05-21T15:59:06;99170.31;;;22.81;56.80
18527;BME280;9393;42.158;24.748;2023-05-21T16:02:10;99167.97;;;22.61;57.93
18527;BME280;9393;42.158;24.748;2023-05-21T16:05:14;99174.00;;;22.69;58.28
18527;BME280;9393;42.158;24.748;2023-05-21T16:08:20;99169.09;;;22.54;59.33
18527;BME280;9393;42.158;24.748;2023-05-21T16:11:24;99174.66;;;22.64;59.63
18527;BME280;9393;42.158;24.748;2023-05-21T16:14:28;99170.69;;;22.55;60.22
18527;BME280;9393;42.158;24.748;2023-05-21T16:17:32;99169.44;;;22.57;60.97
18527;BME280;9393;42.158;24.748;2023-05-21T16:20:37;99171.16;;;22.52;61.61
18527;BME280;9393;42.158;24.748;2023-05-21T16:23:42;99164.47;;;22.49;61.56
18527;BME280;9393;42.158;24.748;2023-05-21T16:26:47;99169.19;;;22.47;61.90